Dexter, MO (63841)

1:27 PM CDT on July 29, 2016 (GMT -0500)
3 miles East of Dudley Mo. | | Change Station

Elev 384 ft 36.78 °N, 90.04 °W | Updated 291 days ago

Mostly Cloudy
Mostly Cloudy
83 °F
Feels Like 88 °F
N
8
Wind Variable Wind from WSW
Gusts mph

Today
High -- | Low -- °F
--% Chance of Precip.
Yesterday
High -- | Low -- °F
Precip. -- in
Pressure 29.93 in
Visibility 10.0 miles
Clouds Few 2400 ft
Heat Index 88 °F
Dew Point 74 °F
Humidity 73%
Rainfall in
Snow Depth Not available.
6:03 AM 8:08 PM
Waning Crescent, 20% visible
METAR KPOF 291753Z AUTO 15005KT 10SM FEW024 30/24 A2994 RMK AO2 SLP133 T03000244 10300 20217 58003 TSNO
Pressure 29.93 in
Visibility 10.0 miles
Clouds Few 2400 ft
Heat Index 88 °F
Dew Point 74 °F
Humidity 73%
Rainfall in
Snow Depth Not available.
6:03 AM 8:08 PM
Waning Crescent, 20% visible
METAR KPOF 291753Z AUTO 15005KT 10SM FEW024 30/24 A2994 RMK AO2 SLP133 T03000244 10300 20217 58003 TSNO

10-Day Weather Forecast

Almanac

Astronomy

Jul. 29, 2016 Rise Set
Actual Time
Civil Twilight
Nautical Twilight
Astronomical Twilight
Moon
Length of Visible Light
Length of Day
Tomorrow will be .
, % of the Moon is Illuminated

Today's Extremes

State Highs State Lows

Community

WunderPhotos

Upload Photos

1,928,392 photos uploaded!

WunderBlog® & News

Nearby

Air Quality

  Air Quality AQ Index Pollutant
Not available.

Snow Depth

Station Depth Elevation

Earthquake Activity

City Distance Mag. Time & Date
Minimum magnitude displayed is 2.5.

Coastal Water Temperatures

Place Temperature

Stations

Nearby Weather Stations

Station Location Temp. Windchill Dew Point Humidity Wind Precip. Elev Updated Type
                   

Watches & Warnings

There are currently no watches in effect.